Time;durP1;ratioP1;P1;durP2;ratioP2;P2;SDS_P1;SDS_P2;PMS_P1;PMS_P2;Temp;Humidity;BMP_temperature;BMP_pressure;BME280_temperature;BME280_humidity;BME280_pressure;Samples;Min_cycle;Max_cycle;Signal;HPM_P1;HPM_P2
2023/12/11 00:01:30;;;;;;;;;;;;;;;1.05;100.00;99260.80;109559;1253;60913;-58
2023/12/11 00:03:58;;;;;;;;;;;;;;;0.99;100.00;99249.39;109624;1253;58964;-58
2023/12/11 00:06:25;;;;;;;;;;;;;;;1.08;100.00;99250.02;109244;1254;74690;-57
2023/12/11 00:08:53;;;;;;;;;;;;;;;1.15;100.00;99248.98;109583;1252;67667;-56
2023/12/11 00:11:21;;;;;;;;;;;;;;;1.14;100.00;99241.38;109618;1253;72743;-57
2023/12/11 00:13:48;;;;;;;;;;;;;;;1.23;100.00;99240.66;109601;1256;60905;-57
2023/12/11 00:16:16;;;;;;;;;;;;;;;1.21;100.00;99241.89;109585;1252;59118;-57
2023/12/11 00:18:44;;;;;;;;;;;;;;;1.17;100.00;99239.92;109672;1251;74831;-57
2023/12/11 00:21:11;;;;;;;;;;;;;;;1.13;100.00;99233.73;109401;1252;67431;-57
2023/12/11 00:23:39;;;;;;;;;;;;;;;1.00;100.00;99229.06;109588;1252;72711;-57
2023/12/11 00:26:06;;;;;;;;;;;;;;;1.10;100.00;99228.98;109224;1253;60978;-57
2023/12/11 00:28:34;;;;;;;;;;;;;;;1.06;100.00;99226.68;109508;1252;59990;-57
2023/12/11 00:31:06;;;;;;;;;;;;;;;1.14;100.00;99228.36;109622;1252;74743;-57
2023/12/11 00:33:36;;;;;;;;;;;;;;;1.11;100.00;99222.23;109595;1252;67692;-57
2023/12/11 00:36:04;;;;;;;;;;;;;;;1.08;100.00;99227.88;109605;1253;72807;-56
2023/12/11 00:38:31;;;;;;;;;;;;;;;1.05;100.00;99237.30;109561;1252;60935;-57
2023/12/11 00:40:59;;;;;;;;;;;;;;;1.16;100.00;99238.61;109629;1251;59836;-57
2023/12/11 00:43:26;;;;;;;;;;;;;;;1.18;100.00;99242.45;109591;1252;74703;-58
2023/12/11 00:46:11;;;;;;;;;;;;;;;1.30;100.00;99238.16;109609;1253;67291;-59
2023/12/11 00:48:38;;;;;;;;;;;;;;;1.11;100.00;99238.31;109182;1252;72746;-58
2023/12/11 00:51:06;;;;;;;;;;;;;;;1.10;100.00;99246.94;109571;1253;59669;-60
2023/12/11 00:53:33;;;;;;;;;;;;;;;1.08;100.00;99244.25;109585;1253;59865;-59
2023/12/11 00:56:01;;;;;;;;;;;;;;;0.81;100.00;99245.75;109608;1253;73545;-59
2023/12/11 00:58:28;;;;;;;;;;;;;;;0.92;100.00;99242.45;109598;1253;68802;-58
2023/12/11 01:00:56;;;;;;;;;;;;;;;0.97;100.00;99240.72;109264;1253;71435;-58
2023/12/11 01:03:23;;;;;;;;;;;;;;;0.97;100.00;99237.56;109075;1254;59699;-57
2023/12/11 01:05:51;;;;;;;;;;;;;;;0.86;100.00;99237.55;109614;1252;59825;-57
2023/12/11 01:08:18;;;;;;;;;;;;;;;0.81;100.00;99233.27;109637;1253;74737;-57
2023/12/11 01:10:46;;;;;;;;;;;;;;;0.95;100.00;99235.60;109504;1253;68502;-57
2023/12/11 01:13:13;;;;;;;;;;;;;;;0.94;100.00;99228.92;109513;1253;72724;-57
2023/12/11 01:15:41;;;;;;;;;;;;;;;0.89;100.00;99224.61;109535;1253;58874;-57
2023/12/11 01:18:09;;;;;;;;;;;;;;;1.02;100.00;99223.70;109577;1253;59367;-57
2023/12/11 01:20:36;;;;;;;;;;;;;;;0.89;100.00;99218.38;109626;1253;74717;-58
2023/12/11 01:23:04;;;;;;;;;;;;;;;0.89;100.00;99219.42;109614;1252;67516;-58
2023/12/11 01:25:32;;;;;;;;;;;;;;;0.93;100.00;99214.27;109461;1253;71759;-61
2023/12/11 01:27:59;;;;;;;;;;;;;;;0.97;100.00;99209.36;109558;1253;60956;-57
2023/12/11 01:30:27;;;;;;;;;;;;;;;0.98;100.00;99204.38;109634;1252;58996;-57
2023/12/11 01:32:54;;;;;;;;;;;;;;;0.99;100.00;99199.34;109461;1253;74763;-59
2023/12/11 01:35:22;;;;;;;;;;;;;;;1.05;100.00;99206.71;109265;1253;67664;-57
2023/12/11 01:37:49;;;;;;;;;;;;;;;0.94;100.00;99210.27;109594;1253;72740;-57
2023/12/11 01:40:17;;;;;;;;;;;;;;;0.80;100.00;99211.96;109529;1256;61033;-57
2023/12/11 01:42:44;;;;;;;;;;;;;;;0.75;100.00;99212.19;109646;1252;58981;-58
2023/12/11 01:45:12;;;;;;;;;;;;;;;0.67;100.00;99215.38;109630;1252;73499;-57
2023/12/11 01:47:39;;;;;;;;;;;;;;;0.86;100.00;99216.09;109559;1252;67646;-57
2023/12/11 01:50:08;;;;;;;;;;;;;;;0.93;100.00;99209.15;109568;1252;72715;-57
2023/12/11 01:52:35;;;;;;;;;;;;;;;1.06;100.00;99206.42;109573;1252;59689;-57
2023/12/11 01:55:04;;;;;;;;;;;;;;;1.03;100.00;99212.89;109609;1252;59161;-58
2023/12/11 01:57:31;;;;;;;;;;;;;;;0.76;100.00;99205.05;109384;1254;74785;-57
2023/12/11 01:59:59;;;;;;;;;;;;;;;0.53;100.00;99193.51;109335;1254;67586;-57
2023/12/11 02:02:29;;;;;;;;;;;;;;;0.57;100.00;99196.60;109165;1254;71214;-58
2023/12/11 02:04:57;;;;;;;;;;;;;;;0.79;100.00;99193.43;109127;1254;60133;-58
2023/12/11 02:07:25;;;;;;;;;;;;;;;1.04;100.00;99192.77;109185;1254;59994;-59
2023/12/11 02:09:52;;;;;;;;;;;;;;;0.94;100.00;99194.36;109358;1254;73807;-59
2023/12/11 02:12:20;;;;;;;;;;;;;;;0.77;100.00;99197.86;109359;1254;67608;-57
2023/12/11 02:14:47;;;;;;;;;;;;;;;0.72;100.00;99194.71;109334;1254;71428;-58
2023/12/11 02:17:14;;;;;;;;;;;;;;;0.94;100.00;99192.33;109157;1256;59972;-58
2023/12/11 02:19:42;;;;;;;;;;;;;;;1.01;100.00;99198.56;109338;1254;59843;-56
2023/12/11 02:22:10;;;;;;;;;;;;;;;1.13;100.00;99196.36;109368;1254;74761;-57
2023/12/11 02:24:39;;;;;;;;;;;;;;;1.14;100.00;99195.21;109213;1254;67247;-58
2023/12/11 02:27:07;;;;;;;;;;;;;;;0.98;100.00;99193.57;109173;1254;72724;-57
2023/12/11 02:29:34;;;;;;;;;;;;;;;1.08;100.00;99190.20;109470;1252;59655;-57
2023/12/11 02:32:02;;;;;;;;;;;;;;;1.04;100.00;99190.94;109524;1252;59864;-58
2023/12/11 02:34:29;;;;;;;;;;;;;;;1.06;100.00;99181.74;109574;1252;74701;-57
2023/12/11 02:36:57;;;;;;;;;;;;;;;1.15;100.00;99186.47;109572;1251;67301;-57
2023/12/11 02:39:24;;;;;;;;;;;;;;;1.00;100.00;99184.53;109562;1252;72737;-57
2023/12/11 02:41:52;;;;;;;;;;;;;;;1.05;100.00;99187.42;109595;1252;60047;-58
2023/12/11 02:44:19;;;;;;;;;;;;;;;0.85;100.00;99182.20;109583;1252;59865;-57
2023/12/11 02:46:47;;;;;;;;;;;;;;;0.81;100.00;99185.80;109642;1252;74698;-58
2023/12/11 02:49:14;;;;;;;;;;;;;;;0.90;100.00;99183.48;109604;1252;68525;-57
2023/12/11 02:51:42;;;;;;;;;;;;;;;0.71;100.00;99180.31;109496;1252;72820;-57
2023/12/11 02:54:09;;;;;;;;;;;;;;;0.76;100.00;99187.80;109249;1253;60916;-57
2023/12/11 02:56:40;;;;;;;;;;;;;;;0.92;100.00;99180.66;109612;1252;58933;-57
2023/12/11 02:59:07;;;;;;;;;;;;;;;0.97;100.00;99181.57;109625;1252;74023;-57
2023/12/11 03:01:38;;;;;;;;;;;;;;;0.95;100.00;99179.57;109583;1253;68530;-57
2023/12/11 03:04:06;;;;;;;;;;;;;;;1.03;100.00;99176.56;109575;1252;72760;-57
2023/12/11 03:06:34;;;;;;;;;;;;;;;0.95;100.00;99170.91;109454;1253;58969;-57
2023/12/11 03:09:02;;;;;;;;;;;;;;;0.97;100.00;99169.36;109432;1252;59924;-58
2023/12/11 03:11:30;;;;;;;;;;;;;;;0.94;100.00;99164.33;109594;1252;73441;-58
2023/12/11 03:13:57;;;;;;;;;;;;;;;1.05;100.00;99157.27;109643;1252;67802;-57
2023/12/11 03:16:25;;;;;;;;;;;;;;;0.99;100.00;99152.77;109569;1251;71565;-58
2023/12/11 03:18:52;;;;;;;;;;;;;;;0.96;100.00;99146.77;109589;1252;59647;-57
2023/12/11 03:21:20;;;;;;;;;;;;;;;0.91;100.00;99137.89;109601;1252;59144;-57
2023/12/11 03:23:47;;;;;;;;;;;;;;;0.85;100.00;99135.08;109591;1252;73436;-60
2023/12/11 03:26:15;;;;;;;;;;;;;;;0.88;100.00;99135.56;109649;1252;70772;-57
2023/12/11 03:28:42;;;;;;;;;;;;;;;0.88;100.00;99142.60;109594;1252;72715;-58
2023/12/11 03:31:10;;;;;;;;;;;;;;;0.92;100.00;99145.56;109259;1254;59716;-59
2023/12/11 03:33:38;;;;;;;;;;;;;;;0.76;100.00;99140.91;109208;1256;59367;-59
2023/12/11 03:36:05;;;;;;;;;;;;;;;0.90;100.00;99133.69;109402;1256;73791;-59
2023/12/11 03:38:33;;;;;;;;;;;;;;;0.90;100.00;99139.34;109362;1254;67549;-60
2023/12/11 03:41:00;;;;;;;;;;;;;;;0.84;100.00;99135.02;108607;1256;1002392;-58
2023/12/11 03:43:28;;;;;;;;;;;;;;;0.72;100.00;99132.29;109209;1254;60934;-61
2023/12/11 03:45:55;;;;;;;;;;;;;;;0.70;100.00;99125.57;109195;1254;58937;-59
2023/12/11 03:48:24;;;;;;;;;;;;;;;0.86;100.00;99130.36;109346;1254;74697;-58
2023/12/11 03:50:52;;;;;;;;;;;;;;;0.86;100.00;99133.61;109324;1254;67711;-58
2023/12/11 03:53:19;;;;;;;;;;;;;;;0.82;100.00;99134.30;109172;1254;71743;-58
2023/12/11 03:55:47;;;;;;;;;;;;;;;0.84;100.00;99127.67;109189;1254;61031;-57
2023/12/11 03:58:15;;;;;;;;;;;;;;;0.83;100.00;99131.40;109176;1254;59139;-59
2023/12/11 04:00:42;;;;;;;;;;;;;;;0.74;100.00;99136.80;109327;1254;74162;-59
2023/12/11 04:03:10;;;;;;;;;;;;;;;0.59;100.00;99135.27;109485;1251;67593;-57
2023/12/11 04:05:37;;;;;;;;;;;;;;;0.91;100.00;99132.64;109617;1252;72854;-58
2023/12/11 04:08:05;;;;;;;;;;;;;;;0.81;100.00;99130.55;109260;1253;61955;-58
2023/12/11 04:10:32;;;;;;;;;;;;;;;0.87;100.00;99132.31;108509;1252;1002490;-59
2023/12/11 04:13:00;;;;;;;;;;;;;;;0.96;100.00;99135.00;109299;1252;73916;-61
2023/12/11 04:15:28;;;;;;;;;;;;;;;0.79;100.00;99131.85;109572;1256;68504;-58
2023/12/11 04:17:55;;;;;;;;;;;;;;;0.83;100.00;99132.95;109610;1252;72712;-56
2023/12/11 04:20:23;;;;;;;;;;;;;;;0.84;100.00;99132.27;109176;1253;61731;-56
2023/12/11 04:22:50;;;;;;;;;;;;;;;0.92;100.00;99134.27;109264;1253;59021;-58
2023/12/11 04:25:18;;;;;;;;;;;;;;;0.83;100.00;99133.57;109633;1252;74752;-58
2023/12/11 04:27:45;;;;;;;;;;;;;;;0.80;100.00;99130.52;109261;1252;68881;-58
2023/12/11 04:30:13;;;;;;;;;;;;;;;0.91;100.00;99129.55;109571;1252;71481;-57
2023/12/11 04:32:40;;;;;;;;;;;;;;;0.93;100.00;99128.17;109575;1253;60944;-56
2023/12/11 04:35:08;;;;;;;;;;;;;;;0.98;100.00;99126.79;109604;1251;60021;-58
2023/12/11 04:37:35;;;;;;;;;;;;;;;0.98;100.00;99122.40;109634;1252;74757;-58
2023/12/11 04:40:03;;;;;;;;;;;;;;;1.04;100.00;99123.91;109156;1254;68514;-60
2023/12/11 04:42:31;;;;;;;;;;;;;;;1.06;100.00;99123.11;109190;1254;71427;-60
2023/12/11 04:44:58;;;;;;;;;;;;;;;1.09;100.00;99119.58;109177;1256;61027;-60
2023/12/11 04:47:26;;;;;;;;;;;;;;;1.13;100.00;99119.33;109169;1256;58972;-60
2023/12/11 04:49:53;;;;;;;;;;;;;;;1.18;100.00;99121.11;109118;1256;75221;-59
2023/12/11 04:52:21;;;;;;;;;;;;;;;1.24;100.00;99119.33;109118;1256;67403;-59
2023/12/11 04:54:48;;;;;;;;;;;;;;;1.26;100.00;99122.83;109088;1256;70423;-57
2023/12/11 04:57:16;;;;;;;;;;;;;;;1.17;100.00;99116.15;109109;1257;59502;-60
2023/12/11 04:59:44;;;;;;;;;;;;;;;1.05;100.00;99110.25;109128;1256;59895;-57
2023/12/11 05:02:11;;;;;;;;;;;;;;;1.14;100.00;99110.58;109351;1256;74772;-58
2023/12/11 05:04:39;;;;;;;;;;;;;;;1.15;100.00;99113.52;109045;1256;67809;-60
2023/12/11 05:07:06;;;;;;;;;;;;;;;1.18;100.00;99110.63;109163;1256;72697;-59
2023/12/11 05:09:34;;;;;;;;;;;;;;;1.21;100.00;99107.73;109000;1260;60959;-58
2023/12/11 05:12:01;;;;;;;;;;;;;;;1.07;100.00;99105.30;109383;1253;59848;-57
2023/12/11 05:14:29;;;;;;;;;;;;;;;1.09;100.00;99095.83;109366;1253;74700;-59
2023/12/11 05:16:56;;;;;;;;;;;;;;;1.07;100.00;99092.80;109561;1252;67625;-58
2023/12/11 05:19:24;;;;;;;;;;;;;;;0.99;100.00;99090.49;109575;1252;70968;-58
2023/12/11 05:21:51;;;;;;;;;;;;;;;1.03;100.00;99090.90;109465;1254;61079;-59
2023/12/11 05:24:22;;;;;;;;;;;;;;;1.12;100.00;99086.67;109482;1253;62189;-58
2023/12/11 05:26:50;;;;;;;;;;;;;;;1.03;100.00;99088.09;109474;1252;74750;-59
2023/12/11 05:29:17;;;;;;;;;;;;;;;1.13;100.00;99086.64;109501;1252;67575;-58
2023/12/11 05:31:45;;;;;;;;;;;;;;;1.05;100.00;99092.20;109415;1253;72718;-59
2023/12/11 05:34:12;;;;;;;;;;;;;;;1.04;100.00;99094.96;109534;1252;60582;-61
2023/12/11 05:36:40;;;;;;;;;;;;;;;0.99;100.00;99095.49;109657;1252;59871;-58
2023/12/11 05:39:07;;;;;;;;;;;;;;;1.03;100.00;99096.22;109637;1251;74697;-58
2023/12/11 05:41:35;;;;;;;;;;;;;;;1.01;100.00;99095.34;109619;1251;67553;-58
2023/12/11 05:44:02;;;;;;;;;;;;;;;0.84;100.00;99093.25;109463;1252;156040;-58
2023/12/11 05:46:30;;;;;;;;;;;;;;;0.97;100.00;99100.65;109507;1253;59927;-58
2023/12/11 05:48:57;;;;;;;;;;;;;;;0.86;100.00;99099.27;109585;1253;59927;-58
2023/12/11 05:51:27;;;;;;;;;;;;;;;1.00;100.00;99098.38;109552;1253;74727;-58
2023/12/11 05:53:55;;;;;;;;;;;;;;;0.90;100.00;99089.64;109549;1253;67484;-58
2023/12/11 05:56:22;;;;;;;;;;;;;;;0.84;100.00;99090.19;109510;1252;72747;-58
2023/12/11 05:58:51;;;;;;;;;;;;;;;0.84;100.00;99093.98;109545;1252;61735;-58
2023/12/11 06:01:18;;;;;;;;;;;;;;;0.89;100.00;99091.66;109541;1252;59793;-59
2023/12/11 06:03:46;;;;;;;;;;;;;;;0.94;100.00;99099.19;109558;1252;73463;-58
2023/12/11 06:06:17;;;;;;;;;;;;;;;0.78;100.00;99095.95;109559;1253;67610;-58
2023/12/11 06:08:44;;;;;;;;;;;;;;;0.87;100.00;99102.55;109582;1253;71471;-58
2023/12/11 06:11:11;;;;;;;;;;;;;;;1.03;100.00;99105.16;109546;1253;61891;-57
2023/12/11 06:13:39;;;;;;;;;;;;;;;1.09;100.00;99110.33;109575;1252;59859;-58
2023/12/11 06:16:07;;;;;;;;;;;;;;;0.96;100.00;99113.38;109564;1253;74700;-60
2023/12/11 06:18:35;;;;;;;;;;;;;;;1.13;100.00;99116.36;109467;1254;68930;-57
2023/12/11 06:21:02;;;;;;;;;;;;;;;1.13;100.00;99116.98;109565;1253;72716;-58
2023/12/11 06:23:30;;;;;;;;;;;;;;;1.12;100.00;99122.54;109306;1252;59649;-59
2023/12/11 06:25:58;;;;;;;;;;;;;;;1.04;100.00;99130.79;109589;1253;58813;-58
2023/12/11 06:28:25;;;;;;;;;;;;;;;1.05;100.00;99135.59;109574;1252;74948;-59
2023/12/11 06:30:53;;;;;;;;;;;;;;;1.02;100.00;99136.80;109574;1253;68882;-59
2023/12/11 06:33:20;;;;;;;;;;;;;;;0.98;100.00;99130.70;109571;1252;72790;-58
2023/12/11 06:35:47;;;;;;;;;;;;;;;1.25;100.00;99132.75;109485;1253;59693;-58
2023/12/11 06:38:15;;;;;;;;;;;;;;;1.19;100.00;99133.04;109583;1251;59010;-58
2023/12/11 06:40:42;;;;;;;;;;;;;;;1.07;100.00;99127.39;109694;1250;74746;-57
2023/12/11 06:43:10;;;;;;;;;;;;;;;1.06;100.00;99125.59;109229;1253;68396;-57
2023/12/11 06:45:38;;;;;;;;;;;;;;;1.08;100.00;99116.55;109301;1254;71466;-58
2023/12/11 06:48:05;;;;;;;;;;;;;;;0.92;100.00;99112.44;109273;1254;61048;-58
2023/12/11 06:50:33;;;;;;;;;;;;;;;1.19;100.00;99105.45;109349;1254;59871;-61
2023/12/11 06:53:00;;;;;;;;;;;;;;;1.21;100.00;99098.34;109327;1253;73459;-59
2023/12/11 06:55:28;;;;;;;;;;;;;;;1.12;100.00;99093.63;109288;1254;68817;-59
2023/12/11 06:57:55;;;;;;;;;;;;;;;0.82;100.00;99094.55;109305;1254;71512;-58
2023/12/11 07:00:23;;;;;;;;;;;;;;;0.97;100.00;99094.31;109300;1255;59650;-58
2023/12/11 07:02:50;;;;;;;;;;;;;;;0.96;100.00;99097.97;109257;1254;59037;-63
2023/12/11 07:05:18;;;;;;;;;;;;;;;0.94;100.00;99097.97;109301;1254;74700;-58
2023/12/11 07:07:46;;;;;;;;;;;;;;;1.03;100.00;99098.34;109150;1254;68860;-58
2023/12/11 07:10:13;;;;;;;;;;;;;;;1.07;100.00;99096.68;109318;1254;72801;-59
2023/12/11 07:12:45;;;;;;;;;;;;;;;0.95;100.00;99099.06;109283;1256;58996;-59
2023/12/11 07:15:13;;;;;;;;;;;;;;;1.09;100.00;99099.40;109563;1250;59106;-58
2023/12/11 07:17:41;;;;;;;;;;;;;;;1.00;100.00;99091.09;109607;1250;74719;-58
2023/12/11 07:20:11;;;;;;;;;;;;;;;0.99;100.00;99098.82;109169;1251;68597;-60
2023/12/11 07:22:38;;;;;;;;;;;;;;;1.10;100.00;99102.99;109582;1251;71430;-58
2023/12/11 07:25:06;;;;;;;;;;;;;;;1.01;100.00;99104.92;109404;1253;60962;-58
2023/12/11 07:27:34;;;;;;;;;;;;;;;0.87;100.00;99102.31;109315;1253;59341;-58
2023/12/11 07:30:01;;;;;;;;;;;;;;;1.14;100.00;99098.95;109090;1254;74865;-58
2023/12/11 07:32:29;;;;;;;;;;;;;;;0.95;100.00;99112.04;109368;1254;67654;-57
2023/12/11 07:34:56;;;;;;;;;;;;;;;0.80;100.00;99113.48;109389;1254;72876;-58
2023/12/11 07:37:24;;;;;;;;;;;;;;;0.89;100.00;99111.95;109365;1255;59099;-58
2023/12/11 07:39:51;;;;;;;;;;;;;;;0.80;100.00;99103.97;109326;1254;59893;-59
2023/12/11 07:42:19;;;;;;;;;;;;;;;0.67;100.00;99107.27;109313;1254;73451;-59
2023/12/11 07:44:46;;;;;;;;;;;;;;;0.61;100.00;99108.49;109263;1254;68541;-59
2023/12/11 07:47:14;;;;;;;;;;;;;;;0.79;100.00;99100.23;109275;1254;71505;-58
2023/12/11 07:49:41;;;;;;;;;;;;;;;0.86;100.00;99097.64;109282;1254;61834;-59
2023/12/11 07:52:09;;;;;;;;;;;;;;;0.66;100.00;99095.62;109416;1254;58977;-58
2023/12/11 07:54:38;;;;;;;;;;;;;;;0.77;100.00;99095.14;109161;1254;74782;-58
2023/12/11 07:57:05;;;;;;;;;;;;;;;0.82;100.00;99097.23;109551;1250;68889;-59
2023/12/11 07:59:33;;;;;;;;;;;;;;;0.74;100.00;99105.59;109662;1250;72737;-58
2023/12/11 08:02:00;;;;;;;;;;;;;;;0.74;100.00;99108.39;109568;1251;61022;-58
2023/12/11 08:04:29;;;;;;;;;;;;;;;0.94;100.00;99102.73;109661;1250;59868;-58
2023/12/11 08:06:56;;;;;;;;;;;;;;;0.87;100.00;99101.13;109596;1250;75169;-57
2023/12/11 08:09:24;;;;;;;;;;;;;;;0.88;99.97;99107.31;109366;1258;68541;-58
2023/12/11 08:11:51;;;;;;;;;;;;;;;0.87;99.62;99104.77;109638;1250;72818;-58
2023/12/11 08:14:19;;;;;;;;;;;;;;;0.77;99.53;99115.88;109657;1253;59657;-58
2023/12/11 08:16:46;;;;;;;;;;;;;;;0.87;98.38;99116.88;109617;1251;58968;-58
2023/12/11 08:19:14;;;;;;;;;;;;;;;0.78;98.74;99116.23;109616;1250;73801;-58
2023/12/11 08:21:42;;;;;;;;;;;;;;;0.72;98.34;99112.17;109363;1258;68939;-57
2023/12/11 08:24:09;;;;;;;;;;;;;;;0.67;98.67;99112.28;109585;1250;71464;-58
2023/12/11 08:26:37;;;;;;;;;;;;;;;0.54;99.50;99113.02;109600;1252;60454;-58
2023/12/11 08:29:04;;;;;;;;;;;;;;;0.46;99.92;99109.51;109654;1251;59043;-58
2023/12/11 08:31:32;;;;;;;;;;;;;;;0.47;99.96;99111.37;109648;1250;74725;-58
2023/12/11 08:33:59;;;;;;;;;;;;;;;0.64;99.64;99116.45;109624;1250;67668;-59
2023/12/11 08:36:27;;;;;;;;;;;;;;;0.61;99.70;99115.31;109419;1250;70971;-57
2023/12/11 08:38:55;;;;;;;;;;;;;;;0.66;99.65;99116.55;109571;1253;59472;-57
2023/12/11 08:41:22;;;;;;;;;;;;;;;0.41;100.00;99108.92;109648;1256;58955;-58
2023/12/11 08:43:50;;;;;;;;;;;;;;;0.39;100.00;99112.52;109640;1253;74694;-57
2023/12/11 08:46:17;;;;;;;;;;;;;;;0.57;100.00;99116.44;109562;1252;68561;-57
2023/12/11 08:48:45;;;;;;;;;;;;;;;0.65;99.96;99117.76;109589;1253;71537;-57
2023/12/11 08:51:13;;;;;;;;;;;;;;;0.77;99.79;99118.19;109289;1252;60501;-57
2023/12/11 08:53:40;;;;;;;;;;;;;;;0.92;99.16;99126.71;109558;1257;59088;-57
2023/12/11 08:56:07;;;;;;;;;;;;;;;0.78;99.80;99125.30;109661;1251;74698;-57
2023/12/11 08:58:36;;;;;;;;;;;;;;;0.84;99.77;99123.05;109537;1251;68808;-58
2023/12/11 09:01:03;;;;;;;;;;;;;;;0.87;99.45;99121.38;109512;1252;71453;-57
2023/12/11 09:03:31;;;;;;;;;;;;;;;0.59;99.95;99117.58;109582;1253;61412;-58
2023/12/11 09:05:59;;;;;;;;;;;;;;;0.70;100.00;99113.75;109595;1252;60690;-58
2023/12/11 09:08:26;;;;;;;;;;;;;;;0.58;100.00;99106.78;109648;1251;74708;-58
2023/12/11 09:10:54;;;;;;;;;;;;;;;0.70;100.00;99096.99;109539;1252;68833;-58
2023/12/11 09:13:21;;;;;;;;;;;;;;;0.67;100.00;99092.98;109274;1253;71088;-58
2023/12/11 09:15:52;;;;;;;;;;;;;;;1.03;99.68;99083.66;109555;1252;59729;-58
2023/12/11 09:18:20;;;;;;;;;;;;;;;0.86;99.94;99077.48;109557;1252;59978;-58
2023/12/11 09:20:47;;;;;;;;;;;;;;;0.58;100.00;99077.60;109573;1253;74794;-59
2023/12/11 09:23:15;;;;;;;;;;;;;;;0.53;100.00;99070.21;109634;1252;67306;-58
2023/12/11 09:25:43;;;;;;;;;;;;;;;0.63;100.00;99070.05;109593;1253;72766;-58
2023/12/11 09:28:10;;;;;;;;;;;;;;;0.50;100.00;99056.50;109602;1254;60947;-60
2023/12/11 09:30:38;;;;;;;;;;;;;;;0.59;100.00;99060.14;109230;1256;59861;-59
2023/12/11 09:33:05;;;;;;;;;;;;;;;0.78;100.00;99060.52;109172;1256;74787;-58
2023/12/11 09:35:35;;;;;;;;;;;;;;;0.77;100.00;99048.70;109106;1256;68817;-61
2023/12/11 09:38:02;;;;;;;;;;;;;;;0.83;100.00;99041.69;109059;1255;70781;-59
2023/12/11 09:40:30;;;;;;;;;;;;;;;0.57;100.00;99041.35;109213;1256;60955;-59
2023/12/11 09:42:57;;;;;;;;;;;;;;;0.90;100.00;99032.27;109284;1254;59436;-59
2023/12/11 09:45:25;;;;;;;;;;;;;;;1.26;99.77;99023.57;109207;1256;73577;-59
2023/12/11 09:47:53;;;;;;;;;;;;;;;1.44;98.79;99024.55;109245;1255;67505;-58
2023/12/11 09:50:37;;;;;;;;;;;;;;;1.50;97.64;99022.91;109206;1255;72764;-57
2023/12/11 09:53:06;;;;;;;;;;;;;;;1.66;96.88;99023.52;109222;1256;59175;-59
2023/12/11 09:55:33;;;;;;;;;;;;;;;1.78;96.26;99019.11;109187;1256;59025;-58
2023/12/11 09:58:01;;;;;;;;;;;;;;;1.71;95.19;99021.14;109202;1256;73491;-59
2023/12/11 10:00:28;;;;;;;;;;;;;;;1.89;94.75;99024.32;109196;1256;68851;-57
2023/12/11 10:02:56;;;;;;;;;;;;;;;1.94;94.78;99024.46;109509;1253;71445;-57
2023/12/11 10:05:24;;;;;;;;;;;;;;;1.73;94.54;99013.16;109485;1254;60942;-57
2023/12/11 10:07:52;;;;;;;;;;;;;;;1.69;95.71;99012.35;109601;1252;59737;-57
2023/12/11 10:10:31;;;;;;;;;;;;;;;1.78;95.30;99008.54;109550;1253;73640;-57
2023/12/11 10:13:00;;;;;;;;;;;;;;;1.79;95.57;99002.55;109570;1253;67045;-58
2023/12/11 10:15:29;;;;;;;;;;;;;;;1.56;96.53;98993.06;109550;1253;72725;-59
2023/12/11 10:18:05;;;;;;;;;;;;;;;1.72;96.84;98986.45;109539;1255;61011;-59
2023/12/11 10:20:33;;;;;;;;;;;;;;;1.86;95.52;98979.39;109542;1253;59850;-59
2023/12/11 10:23:14;;;;;;;;;;;;;;;1.78;95.13;98980.52;109605;1252;74680;-59
2023/12/11 10:25:43;;;;;;;;;;;;;;;1.61;95.31;98975.91;109369;1253;68853;-59
2023/12/11 10:28:11;;;;;;;;;;;;;;;1.80;94.59;98968.55;109554;1253;72745;-58
2023/12/11 10:30:52;;;;;;;;;;;;;;;1.93;94.87;98967.05;109550;1254;60936;-58
2023/12/11 10:33:21;;;;;;;;;;;;;;;1.86;94.29;98963.20;109559;1251;59069;-59
2023/12/11 10:35:49;;;;;;;;;;;;;;;1.97;93.92;98960.40;109644;1252;74735;-58
2023/12/11 10:38:23;;;;;;;;;;;;;;;1.75;94.17;98963.60;109156;1252;67703;-58
2023/12/11 10:40:51;;;;;;;;;;;;;;;1.69;94.33;98951.09;109701;1250;72720;-59
2023/12/11 10:43:18;;;;;;;;;;;;;;;1.88;93.88;98948.59;109609;1253;61056;-58
2023/12/11 10:45:46;;;;;;;;;;;;;;;1.73;94.29;98944.73;109594;1252;58972;-58
2023/12/11 10:48:19;;;;;;;;;;;;;;;1.82;93.24;98948.30;109538;1253;74766;-58
2023/12/11 10:50:47;;;;;;;;;;;;;;;1.91;92.39;98948.49;109433;1254;67293;-58
2023/12/11 10:53:15;;;;;;;;;;;;;;;1.82;92.83;98939.51;109429;1254;72779;-58
2023/12/11 10:55:43;;;;;;;;;;;;;;;1.79;93.32;98944.70;109410;1256;59656;-58
2023/12/11 10:58:12;;;;;;;;;;;;;;;1.97;92.34;98945.58;109426;1253;59007;-58
2023/12/11 11:00:40;;;;;;;;;;;;;;;1.93;92.12;98942.59;109263;1254;74720;-58
2023/12/11 11:03:08;;;;;;;;;;;;;;;2.01;91.46;98946.11;109419;1253;67254;-58
2023/12/11 11:05:35;;;;;;;;;;;;;;;2.06;91.29;98945.90;109413;1254;71502;-57
2023/12/11 11:08:04;;;;;;;;;;;;;;;2.06;90.93;98941.96;109380;1255;61049;-57
2023/12/11 11:10:32;;;;;;;;;;;;;;;2.01;90.82;98938.26;109372;1254;59040;-57
2023/12/11 11:13:06;;;;;;;;;;;;;;;1.86;91.50;98937.82;109467;1253;73299;-57
2023/12/11 11:15:34;;;;;;;;;;;;;;;1.67;92.12;98938.21;109035;1257;67728;-57
2023/12/11 11:18:02;;;;;;;;;;;;;;;1.82;91.30;98947.98;109138;1256;72816;-57
2023/12/11 11:20:31;;;;;;;;;;;;;;;1.80;91.02;98950.23;109197;1256;60963;-57
2023/12/11 11:23:13;;;;;;;;;;;;;;;1.75;91.02;98950.25;109293;1255;59884;-58
2023/12/11 11:25:53;;;;;;;;;;;;;;;1.73;90.92;98947.09;109280;1255;74875;-57
2023/12/11 11:28:46;;;;;;;;;;;;;;;1.92;89.63;98949.80;108532;1254;1002461;-57
2023/12/11 11:31:14;;;;;;;;;;;;;;;1.78;89.55;98943.77;109300;1254;72751;-57
2023/12/11 11:33:55;;;;;;;;;;;;;;;1.68;90.01;98936.52;109204;1256;59787;-59
2023/12/11 11:36:42;;;;;;;;;;;;;;;2.00;89.70;98932.96;109318;1254;59853;-58
2023/12/11 11:39:10;;;;;;;;;;;;;;;2.21;87.83;98935.05;109296;1254;74690;-57
2023/12/11 11:41:37;;;;;;;;;;;;;;;2.15;87.77;98943.16;109315;1258;67305;-58
2023/12/11 11:44:06;;;;;;;;;;;;;;;2.00;87.83;98942.45;109261;1256;72725;-58
2023/12/11 11:46:52;;;;;;;;;;;;;;;1.80;89.02;98949.86;109338;1255;60050;-58
2023/12/11 11:49:33;;;;;;;;;;;;;;;1.82;89.58;98953.69;109633;1253;59945;-58
2023/12/11 11:52:05;;;;;;;;;;;;;;;1.94;89.54;98957.52;109613;1253;73436;-58
2023/12/11 11:54:35;;;;;;;;;;;;;;;2.14;88.07;98945.52;109609;1253;68809;-58
2023/12/11 11:57:03;;;;;;;;;;;;;;;1.98;88.24;98931.93;109562;1253;72877;-57
2023/12/11 11:59:30;;;;;;;;;;;;;;;1.94;88.68;98913.59;109510;1254;59758;-56
2023/12/11 12:01:58;;;;;;;;;;;;;;;1.96;88.19;98912.02;109598;1252;59945;-57
2023/12/11 12:04:29;;;;;;;;;;;;;;;2.04;87.75;98925.57;109583;1252;74716;-56
2023/12/11 12:07:06;;;;;;;;;;;;;;;2.18;86.78;98921.53;109554;1253;66271;-58
2023/12/11 12:09:34;;;;;;;;;;;;;;;2.02;87.74;98926.31;109549;1253;72946;-58
2023/12/11 12:12:01;;;;;;;;;;;;;;;2.11;87.49;98927.36;109530;1254;59632;-57
2023/12/11 12:14:29;;;;;;;;;;;;;;;1.89;88.63;98930.31;109568;1253;59958;-57
2023/12/11 12:16:56;;;;;;;;;;;;;;;1.99;88.31;98932.45;109547;1253;74731;-57
2023/12/11 12:19:33;;;;;;;;;;;;;;;2.18;87.72;98934.93;109567;1253;68852;-58
2023/12/11 12:22:04;;;;;;;;;;;;;;;2.18;87.42;98935.27;109554;1254;71436;-57
2023/12/11 12:24:36;;;;;;;;;;;;;;;2.20;87.47;98931.45;109595;1253;59793;-57
2023/12/11 12:27:06;;;;;;;;;;;;;;;2.00;88.33;98935.14;109494;1252;59877;-57
2023/12/11 12:29:33;;;;;;;;;;;;;;;1.97;88.46;98937.10;109425;1253;74939;-57
2023/12/11 12:32:01;;;;;;;;;;;;;;;2.06;87.18;98941.38;109624;1252;68784;-57
2023/12/11 12:34:29;;;;;;;;;;;;;;;2.18;86.00;98942.88;109554;1256;71470;-60
2023/12/11 12:36:57;;;;;;;;;;;;;;;2.21;86.18;98937.23;109535;1253;59680;-57
2023/12/11 12:39:25;;;;;;;;;;;;;;;2.22;85.92;98930.30;109627;1251;59320;-57
2023/12/11 12:41:52;;;;;;;;;;;;;;;2.20;85.85;98920.19;109642;1251;73617;-58
2023/12/11 12:44:21;;;;;;;;;;;;;;;2.07;86.29;98921.93;109561;1251;67392;-58
2023/12/11 12:46:49;;;;;;;;;;;;;;;2.12;86.22;98921.77;109592;1250;72778;-57